createdAt,value
2018-07-21T00:01:25.542Z,100822.27
2018-07-21T00:03:52.749Z,100819.70
2018-07-21T00:06:19.843Z,100822.36
2018-07-21T00:08:46.939Z,100820.33
2018-07-21T00:11:14.171Z,100820.44
2018-07-21T00:13:41.503Z,100816.30
2018-07-21T00:16:08.696Z,100811.47
2018-07-21T00:18:35.887Z,100819.98
2018-07-21T00:21:02.997Z,100822.06
2018-07-21T00:23:30.133Z,100824.71
2018-07-21T00:25:57.388Z,100821.66
2018-07-21T00:28:24.584Z,100823.70
2018-07-21T00:30:51.696Z,100824.41
2018-07-21T00:33:18.920Z,100825.84
2018-07-21T00:35:46.031Z,100826.36
2018-07-21T00:38:13.166Z,100824.22
2018-07-21T00:40:40.425Z,100824.37
2018-07-21T00:43:07.668Z,100824.06
2018-07-21T00:45:34.783Z,100822.39
2018-07-21T00:48:01.948Z,100817.91
2018-07-21T00:50:29.601Z,100817.29
2018-07-21T00:52:56.782Z,100818.27
2018-07-21T00:55:24.000Z,100816.32
2018-07-21T00:57:51.144Z,100810.92
2018-07-21T01:00:18.354Z,100813.16
2018-07-21T01:02:45.539Z,100807.86
2018-07-21T01:05:12.631Z,100811.89
2018-07-21T01:07:39.768Z,100803.48
2018-07-21T01:10:07.425Z,100797.89
2018-07-21T01:12:34.584Z,100797.58
2018-07-21T01:15:01.707Z,100790.09
2018-07-21T01:17:29.294Z,100800.14
2018-07-21T01:19:56.443Z,100784.25
2018-07-21T01:22:23.605Z,100784.39
2018-07-21T01:24:50.843Z,100780.07
2018-07-21T01:27:17.953Z,100786.23
2018-07-21T01:29:45.087Z,100782.72
2018-07-21T01:32:12.443Z,100788.98
2018-07-21T01:34:39.577Z,100782.97
2018-07-21T01:37:06.724Z,100785.68
2018-07-21T01:39:33.886Z,100789.30
2018-07-21T01:42:01.029Z,100790.35
2018-07-21T01:44:28.156Z,100793.86
2018-07-21T01:46:55.421Z,100799.11
2018-07-21T01:49:22.560Z,100801.86
2018-07-21T01:51:49.740Z,100801.04
2018-07-21T01:54:16.972Z,100800.31
2018-07-21T01:56:44.076Z,100803.92
2018-07-21T01:59:11.215Z,100810.37
2018-07-21T02:01:38.493Z,100817.77
2018-07-21T02:04:05.967Z,100822.65
2018-07-21T02:06:33.122Z,100819.22
2018-07-21T02:09:00.300Z,100820.69
2018-07-21T02:11:27.416Z,100814.92
2018-07-21T02:13:54.540Z,100813.68
2018-07-21T02:16:21.755Z,100812.81
2018-07-21T02:18:48.901Z,100811.23
2018-07-21T02:21:16.036Z,100806.58
2018-07-21T02:23:43.608Z,100810.46
2018-07-21T02:26:10.738Z,100807.86
2018-07-21T02:28:37.861Z,100805.63
2018-07-21T02:31:05.179Z,100804.03
2018-07-21T02:33:32.962Z,100812.92
2018-07-21T02:36:00.072Z,100816.07
2018-07-21T02:38:27.224Z,100813.06
2018-07-21T02:40:54.368Z,100817.66
2018-07-21T02:43:21.512Z,100820.44
2018-07-21T02:45:48.669Z,100824.17
2018-07-21T02:48:15.806Z,100819.66
2018-07-21T02:50:42.961Z,100824.13
2018-07-21T02:53:10.232Z,100821.02
2018-07-21T02:55:37.340Z,100825.45
2018-07-21T02:58:04.524Z,100828.59
2018-07-21T03:00:31.712Z,100829.82
2018-07-21T03:02:58.930Z,100820.56
2018-07-21T03:05:26.028Z,100822.89
2018-07-21T03:07:53.212Z,100821.34
2018-07-21T03:10:20.370Z,100824.43
2018-07-21T03:12:47.513Z,100816.31
2018-07-21T03:15:14.704Z,100812.84
2018-07-21T03:17:41.829Z,100811.16
2018-07-21T03:20:08.962Z,100812.98
2018-07-21T03:22:36.229Z,100821.69
2018-07-21T03:25:03.416Z,100813.39
2018-07-21T03:27:30.548Z,100815.77
2018-07-21T03:29:57.808Z,100814.98
2018-07-21T03:32:24.911Z,100812.80
2018-07-21T03:34:52.079Z,100816.03
2018-07-21T03:37:19.211Z,100815.58
2018-07-21T03:39:46.356Z,100813.75
2018-07-21T03:42:13.468Z,100812.75
2018-07-21T03:44:40.635Z,100808.26
2018-07-21T03:47:07.767Z,100813.45
2018-07-21T03:49:34.891Z,100808.26
2018-07-21T03:52:02.136Z,100812.45
2018-07-21T03:54:29.285Z,100808.36
2018-07-21T03:56:56.415Z,100806.36
2018-07-21T03:59:23.564Z,100810.64
2018-07-21T04:01:50.701Z,100807.83
2018-07-21T04:04:17.867Z,100811.28
2018-07-21T04:06:45.036Z,100815.16
2018-07-21T04:09:12.156Z,100815.84
2018-07-21T04:11:39.401Z,100820.53
2018-07-21T04:14:06.748Z,100813.75
2018-07-21T04:16:33.901Z,100819.34
2018-07-21T04:19:01.148Z,100820.03
2018-07-21T04:21:28.332Z,100815.56
2018-07-21T04:23:55.456Z,100821.26
2018-07-21T04:26:22.641Z,100822.35
2018-07-21T04:28:49.855Z,100825.71
2018-07-21T04:31:16.987Z,100824.66
2018-07-21T04:33:44.103Z,100820.00
2018-07-21T04:36:11.292Z,100819.29
2018-07-21T04:38:38.412Z,100818.95
2018-07-21T04:41:05.604Z,100815.91
2018-07-21T04:43:32.895Z,100818.56
2018-07-21T04:46:00.033Z,100809.45
2018-07-21T04:48:27.156Z,100806.45
2018-07-21T04:50:54.312Z,100804.66
2018-07-21T04:53:21.446Z,100806.94
2018-07-21T04:55:48.598Z,100808.30
2018-07-21T04:58:15.762Z,100800.90
2018-07-21T05:00:42.915Z,100802.56
2018-07-21T05:03:10.037Z,100801.48
2018-07-21T05:05:37.337Z,100804.00
2018-07-21T05:08:04.488Z,100798.16
2018-07-21T05:10:31.651Z,100793.56
2018-07-21T05:12:58.821Z,100791.25
2018-07-21T05:15:25.981Z,100790.48
2018-07-21T05:17:53.101Z,100783.14
2018-07-21T05:20:20.264Z,100786.97
2018-07-21T05:22:47.384Z,100787.05
2018-07-21T05:25:14.532Z,100783.29
2018-07-21T05:27:41.706Z,100786.77
2018-07-21T05:30:08.829Z,100788.67
2018-07-21T05:32:35.945Z,100781.66
2018-07-21T05:35:03.255Z,100787.64
2018-07-21T05:37:31.379Z,100788.19
2018-07-21T05:39:58.519Z,100790.64
2018-07-21T05:42:25.688Z,100788.39
2018-07-21T05:44:53.672Z,100794.78
2018-07-21T05:47:20.787Z,100799.92
2018-07-21T05:49:48.014Z,100796.72
2018-07-21T05:52:15.127Z,100791.30
2018-07-21T05:54:42.299Z,100793.35
2018-07-21T05:57:09.428Z,100792.46
2018-07-21T05:59:36.527Z,100793.64
2018-07-21T06:02:03.671Z,100794.34
2018-07-21T06:04:30.948Z,100803.33
2018-07-21T06:06:58.502Z,100799.11
2018-07-21T06:09:25.626Z,100795.52
2018-07-21T06:11:52.809Z,100794.29
2018-07-21T06:14:19.954Z,100790.99
2018-07-21T06:16:47.068Z,100790.02
2018-07-21T06:19:14.245Z,100789.56
2018-07-21T06:21:41.389Z,100790.56
2018-07-21T06:24:08.516Z,100796.77
2018-07-21T06:26:35.716Z,100801.28
2018-07-21T06:29:02.875Z,100805.36
2018-07-21T06:31:30.040Z,100805.03
2018-07-21T06:33:57.268Z,100808.07
2018-07-21T06:36:24.416Z,100811.08
2018-07-21T06:38:51.545Z,100815.56
2018-07-21T06:41:18.703Z,100809.52
2018-07-21T06:43:45.838Z,100814.66
2018-07-21T06:46:13.006Z,100818.80
2018-07-21T06:48:40.153Z,100813.41
2018-07-21T06:51:07.298Z,100815.38
2018-07-21T06:53:34.443Z,100822.74
2018-07-21T06:56:01.651Z,100821.41
2018-07-21T06:58:28.796Z,100821.11
2018-07-21T07:00:55.923Z,100819.80
2018-07-21T07:03:23.188Z,100827.44
2018-07-21T07:05:50.287Z,100824.22
2018-07-21T07:08:17.468Z,100829.27
2018-07-21T07:10:44.752Z,100831.39
2018-07-21T07:13:11.884Z,100839.64
2018-07-21T07:15:38.996Z,100838.23
2018-07-21T07:18:06.159Z,100828.67
2018-07-21T07:20:33.284Z,100827.63
2018-07-21T07:23:00.421Z,100823.14
2018-07-21T07:25:27.598Z,100829.95
2018-07-21T07:27:54.696Z,100832.12
2018-07-21T07:30:21.839Z,100818.00
2018-07-21T07:32:49.060Z,100827.59
2018-07-21T07:35:16.264Z,100828.36
2018-07-21T07:37:43.328Z,100825.09
2018-07-21T07:40:10.554Z,100834.34
2018-07-21T07:42:37.687Z,100830.95
2018-07-21T07:45:05.018Z,100827.29
2018-07-21T07:47:32.195Z,100830.02
2018-07-21T07:49:59.343Z,100840.06
2018-07-21T07:52:26.495Z,100838.30
2018-07-21T07:54:53.655Z,100843.01
2018-07-21T07:57:20.784Z,100839.02
2018-07-21T07:59:47.912Z,100834.31
2018-07-21T08:02:15.072Z,100835.91
2018-07-21T08:04:42.194Z,100831.98
2018-07-21T08:07:09.309Z,100831.25
2018-07-21T08:09:36.632Z,100831.38
2018-07-21T08:12:03.789Z,100830.53
2018-07-21T08:14:30.932Z,100823.69
2018-07-21T08:16:58.092Z,100814.98
2018-07-21T08:19:25.267Z,100822.44
2018-07-21T08:21:52.412Z,100826.69
2018-07-21T08:24:19.658Z,100829.27
2018-07-21T08:26:46.784Z,100828.06
2018-07-21T08:29:13.911Z,100828.68
2018-07-21T08:31:41.125Z,100826.11
2018-07-21T08:34:08.255Z,100826.23
2018-07-21T08:36:35.438Z,100819.80
2018-07-21T08:39:02.880Z,100821.11
2018-07-21T08:41:30.016Z,100818.43
2018-07-21T08:43:57.142Z,100811.53
2018-07-21T08:46:24.312Z,100816.72
2018-07-21T08:48:51.443Z,100822.12
2018-07-21T08:51:18.601Z,100817.39
2018-07-21T08:53:45.778Z,100818.37
2018-07-21T08:56:12.932Z,100818.69
2018-07-21T08:58:40.072Z,100815.69
2018-07-21T09:01:07.283Z,100812.13
2018-07-21T09:03:34.436Z,100814.86
2018-07-21T09:06:01.619Z,100822.06
2018-07-21T09:08:28.899Z,100814.96
2018-07-21T09:10:56.177Z,100815.58
2018-07-21T09:13:23.288Z,100813.36
2018-07-21T09:15:50.460Z,100816.48
2018-07-21T09:18:17.636Z,100808.56
2018-07-21T09:20:44.805Z,100807.05
2018-07-21T09:23:11.979Z,100816.25
2018-07-21T09:25:39.112Z,100804.15
2018-07-21T09:28:06.253Z,100800.81
2018-07-21T09:30:33.446Z,100801.25
2018-07-21T09:33:00.621Z,100807.38
2018-07-21T09:35:27.761Z,100806.59
2018-07-21T09:37:54.992Z,100807.83
2018-07-21T09:40:22.183Z,100806.03
2018-07-21T09:42:49.296Z,100802.65
2018-07-21T09:45:16.549Z,100806.42
2018-07-21T09:47:43.707Z,100797.48
2018-07-21T09:50:10.890Z,100794.77
2018-07-21T09:52:38.515Z,100796.27
2018-07-21T09:55:06.468Z,100792.70
2018-07-21T09:57:33.617Z,100803.92
2018-07-21T10:00:00.792Z,100797.91
2018-07-21T10:02:27.920Z,100807.47
2018-07-21T10:04:55.512Z,100805.17
2018-07-21T10:07:22.774Z,100807.91
2018-07-21T10:09:49.893Z,100804.02
2018-07-21T10:12:17.072Z,100797.70
2018-07-21T10:14:44.310Z,100804.25
2018-07-21T10:17:11.465Z,100803.42
2018-07-21T10:19:38.577Z,100801.94
2018-07-21T10:22:05.817Z,100798.81
2018-07-21T10:24:38.714Z,100794.23
2018-07-21T10:27:11.482Z,100799.47
2018-07-21T10:29:38.637Z,100793.37
2018-07-21T10:32:06.486Z,100798.25
2018-07-21T10:34:33.645Z,100787.84
2018-07-21T10:37:00.784Z,100787.86
2018-07-21T10:39:27.904Z,100791.48
2018-07-21T10:41:55.147Z,100794.30
2018-07-21T10:44:22.286Z,100788.41
2018-07-21T10:46:49.396Z,100793.17
2018-07-21T10:49:16.547Z,100791.19
2018-07-21T10:51:43.727Z,100785.34
2018-07-21T10:54:10.866Z,100781.95
2018-07-21T10:56:38.028Z,100776.95
2018-07-21T10:59:05.184Z,100779.37
2018-07-21T11:01:32.358Z,100777.01
2018-07-21T11:03:59.545Z,100768.86
2018-07-21T11:06:26.679Z,100772.58
2018-07-21T11:08:53.819Z,100779.75
2018-07-21T11:11:21.076Z,100777.06
2018-07-21T11:13:48.240Z,100771.11
2018-07-21T11:16:15.378Z,100766.36
2018-07-21T11:18:42.567Z,100767.05
2018-07-21T11:21:09.788Z,100767.02
2018-07-21T11:23:36.901Z,100767.50
2018-07-21T11:26:04.197Z,100764.31
2018-07-21T11:28:31.720Z,100766.86
2018-07-21T11:30:58.913Z,100771.23
2018-07-21T11:33:26.821Z,100769.89
2018-07-21T11:35:54.193Z,100767.18
2018-07-21T11:38:21.186Z,100767.02
2018-07-21T11:40:48.440Z,100756.61
2018-07-21T11:43:15.591Z,100760.88
2018-07-21T11:45:42.752Z,100752.70
2018-07-21T11:48:10.144Z,100757.50
2018-07-21T11:50:37.276Z,100751.66
2018-07-21T11:53:04.511Z,100747.98
2018-07-21T11:55:31.715Z,100747.70
2018-07-21T11:57:58.836Z,100753.23
2018-07-21T12:00:25.993Z,100745.92
2018-07-21T12:02:53.232Z,100753.36
2018-07-21T12:05:20.484Z,100749.95
2018-07-21T12:07:47.603Z,100744.73
2018-07-21T12:10:14.742Z,100743.31
2018-07-21T12:12:41.903Z,100737.82
2018-07-21T12:15:09.163Z,100741.34
2018-07-21T12:17:36.357Z,100748.00
2018-07-21T12:20:03.587Z,100747.75
2018-07-21T12:22:30.799Z,100744.57
2018-07-21T12:24:57.983Z,100744.11
2018-07-21T12:27:25.160Z,100735.49
2018-07-21T12:29:52.303Z,100728.73
2018-07-21T12:32:19.483Z,100733.83
2018-07-21T12:34:46.627Z,100727.23
2018-07-21T12:37:13.776Z,100715.66
2018-07-21T12:39:40.940Z,100727.04
2018-07-21T12:42:08.119Z,100723.70
2018-07-21T12:44:35.296Z,100720.60
2018-07-21T12:47:02.500Z,100718.84
2018-07-21T12:49:29.636Z,100725.59
2018-07-21T12:51:56.777Z,100717.80
2018-07-21T12:54:23.943Z,100715.28
2018-07-21T12:56:51.129Z,100716.38
2018-07-21T12:59:18.236Z,100720.31
2018-07-21T13:01:45.468Z,100715.67
2018-07-21T13:04:12.607Z,100713.42
2018-07-21T13:06:39.892Z,100713.41
2018-07-21T13:09:08.549Z,100709.70
2018-07-21T13:11:35.684Z,100708.30
2018-07-21T13:14:02.881Z,100712.72
2018-07-21T13:16:30.113Z,100712.96
2018-07-21T13:18:57.396Z,100709.16
2018-07-21T13:21:24.543Z,100701.56
2018-07-21T13:23:51.716Z,100702.98
2018-07-21T13:26:18.868Z,100697.84
2018-07-21T13:28:46.007Z,100694.87
2018-07-21T13:31:13.191Z,100708.22
2018-07-21T13:33:40.325Z,100690.80
2018-07-21T13:36:07.441Z,100694.31
2018-07-21T13:38:34.700Z,100690.45
2018-07-21T13:41:01.836Z,100692.64
2018-07-21T13:43:28.969Z,100690.48
2018-07-21T13:45:56.189Z,100694.61
2018-07-21T13:48:23.304Z,100691.15
2018-07-21T13:50:50.415Z,100696.12
2018-07-21T13:53:17.593Z,100693.23
2018-07-21T13:55:44.760Z,100689.61
2018-07-21T13:58:11.876Z,100687.95
2018-07-21T14:00:39.035Z,100686.55
2018-07-21T14:03:06.252Z,100679.75
2018-07-21T14:05:33.453Z,100683.88
2018-07-21T14:08:00.632Z,100684.38
2018-07-21T14:10:27.739Z,100685.75
2018-07-21T14:12:54.867Z,100685.70
2018-07-21T14:15:22.061Z,100683.82
2018-07-21T14:17:49.224Z,100681.20
2018-07-21T14:20:16.507Z,100680.56
2018-07-21T14:22:43.669Z,100683.30
2018-07-21T14:25:10.804Z,100669.45
2018-07-21T14:27:37.927Z,100675.87
2018-07-21T14:30:06.348Z,100678.75
2018-07-21T14:32:33.490Z,100665.77
2018-07-21T14:35:00.635Z,100673.35
2018-07-21T14:37:27.812Z,100678.18
2018-07-21T14:39:54.957Z,100672.52
2018-07-21T14:42:22.073Z,100670.03
2018-07-21T14:44:49.319Z,100667.16
2018-07-21T14:47:16.472Z,100673.38
2018-07-21T14:49:43.598Z,100669.22
2018-07-21T14:52:10.775Z,100671.92
2018-07-21T14:54:37.958Z,100671.16
2018-07-21T14:57:05.115Z,100665.53
2018-07-21T14:59:32.288Z,100665.70
2018-07-21T15:01:59.407Z,100670.55
2018-07-21T15:04:26.528Z,100672.73
2018-07-21T15:06:53.712Z,100677.11
2018-07-21T15:09:20.862Z,100678.23
2018-07-21T15:11:47.975Z,100679.58
2018-07-21T15:14:15.163Z,100679.98
2018-07-21T15:16:42.332Z,100682.47
2018-07-21T15:19:09.531Z,100682.60
2018-07-21T15:21:36.717Z,100685.45
2018-07-21T15:24:03.889Z,100682.50
2018-07-21T15:26:31.012Z,100680.53
2018-07-21T15:28:58.236Z,100683.41
2018-07-21T15:31:25.364Z,100681.17
2018-07-21T15:33:52.518Z,100678.73
2018-07-21T15:36:19.701Z,100677.42
2018-07-21T15:38:46.829Z,100678.89
2018-07-21T15:41:14.001Z,100671.41
2018-07-21T15:43:41.257Z,100666.95
2018-07-21T15:46:08.405Z,100674.23
2018-07-21T15:48:35.511Z,100677.73
2018-07-21T15:51:02.756Z,100677.90
2018-07-21T15:53:29.941Z,100678.36
2018-07-21T15:55:57.076Z,100677.45
2018-07-21T15:58:24.263Z,100675.69
2018-07-21T16:00:51.420Z,100679.12
2018-07-21T16:03:18.533Z,100679.67
2018-07-21T16:05:45.719Z,100671.27
2018-07-21T16:08:12.816Z,100667.42
2018-07-21T16:10:39.971Z,100667.30
2018-07-21T16:13:07.280Z,100671.07
2018-07-21T16:15:34.463Z,100663.80
2018-07-21T16:18:01.596Z,100666.17
2018-07-21T16:20:29.618Z,100660.37
2018-07-21T16:22:56.807Z,100654.72
2018-07-21T16:25:23.964Z,100654.37
2018-07-21T16:27:51.158Z,100658.23
2018-07-21T16:30:18.316Z,100651.55
2018-07-21T16:32:45.432Z,100651.31
2018-07-21T16:35:12.580Z,100645.70
2018-07-21T16:37:39.712Z,100644.33
2018-07-21T16:40:06.900Z,100645.25
2018-07-21T16:42:34.083Z,100654.22
2018-07-21T16:45:01.200Z,100652.67
2018-07-21T16:47:28.321Z,100647.39
2018-07-21T16:49:55.483Z,100650.11
2018-07-21T16:52:22.616Z,100647.43
2018-07-21T16:54:49.739Z,100641.36
2018-07-21T16:57:16.896Z,100641.77
2018-07-21T16:59:43.986Z,100645.19
2018-07-21T17:02:11.087Z,100641.16
2018-07-21T17:04:38.227Z,100645.42
2018-07-21T17:07:05.360Z,100647.28
2018-07-21T17:09:32.873Z,100646.78
2018-07-21T17:12:00.129Z,100640.37
2018-07-21T17:14:27.342Z,100636.94
2018-07-21T17:16:54.463Z,100637.70
2018-07-21T17:19:21.701Z,100635.77
2018-07-21T17:21:48.896Z,100630.37
2018-07-21T17:24:16.004Z,100635.20
2018-07-21T17:26:43.204Z,100637.56
2018-07-21T17:29:10.350Z,100635.20
2018-07-21T17:31:37.502Z,100634.94
2018-07-21T17:34:04.676Z,100638.25
2018-07-21T17:36:31.824Z,100636.80
2018-07-21T17:38:58.930Z,100635.29
2018-07-21T17:41:26.223Z,100635.16
2018-07-21T17:43:53.405Z,100639.50
2018-07-21T17:46:20.520Z,100634.04
2018-07-21T17:48:47.812Z,100635.33
2018-07-21T17:51:14.987Z,100636.57
2018-07-21T17:53:42.092Z,100635.25
2018-07-21T17:56:10.684Z,100638.69
2018-07-21T17:58:37.825Z,100634.78
2018-07-21T18:01:04.999Z,100628.75
2018-07-21T18:03:32.177Z,100634.17
2018-07-21T18:05:59.355Z,100627.89
2018-07-21T18:08:26.487Z,100628.03
2018-07-21T18:10:53.672Z,100627.10
2018-07-21T18:13:20.795Z,100626.33
2018-07-21T18:15:47.929Z,100631.13
2018-07-21T18:18:15.085Z,100628.05
2018-07-21T18:20:42.270Z,100626.78
2018-07-21T18:23:09.449Z,100629.94
2018-07-21T18:25:36.689Z,100630.41
2018-07-21T18:28:03.968Z,100629.11
2018-07-21T18:30:31.104Z,100631.18
2018-07-21T18:32:58.304Z,100630.09
2018-07-21T18:35:25.450Z,100630.33
2018-07-21T18:37:52.585Z,100634.95
2018-07-21T18:40:19.765Z,100638.34
2018-07-21T18:42:46.911Z,100638.42
2018-07-21T18:45:14.094Z,100639.55
2018-07-21T18:47:41.245Z,100642.77
2018-07-21T18:50:08.404Z,100648.65
2018-07-21T18:52:35.545Z,100650.98
2018-07-21T18:55:02.789Z,100650.37
2018-07-21T18:57:29.920Z,100644.01
2018-07-21T18:59:57.041Z,100647.88
2018-07-21T19:02:24.208Z,100650.64
2018-07-21T19:04:51.335Z,100649.86
2018-07-21T19:07:18.495Z,100649.38
2018-07-21T19:09:45.661Z,100652.97
2018-07-21T19:12:18.615Z,100653.63
2018-07-21T19:14:45.826Z,100653.94
2018-07-21T19:17:12.872Z,100653.37
2018-07-21T19:19:45.835Z,100656.56
2018-07-21T19:22:12.965Z,100647.73
2018-07-21T19:24:40.124Z,100657.98
2018-07-21T19:27:12.912Z,100650.89
2018-07-21T19:29:40.057Z,100648.84
2018-07-21T19:32:13.022Z,100655.33
2018-07-21T19:34:40.145Z,100662.57
2018-07-21T19:37:13.151Z,100653.56
2018-07-21T19:39:40.268Z,100658.94
2018-07-21T19:42:07.464Z,100656.89
2018-07-21T19:44:34.657Z,100653.77
2018-07-21T19:47:01.781Z,100646.84
2018-07-21T19:49:28.889Z,100650.14
2018-07-21T19:51:56.113Z,100648.44
2018-07-21T19:54:23.233Z,100648.23
2018-07-21T19:56:50.415Z,100642.52
2018-07-21T19:59:17.635Z,100643.70
2018-07-21T20:01:44.767Z,100640.20
2018-07-21T20:04:11.893Z,100642.40
2018-07-21T20:06:39.060Z,100645.20
2018-07-21T20:09:06.661Z,100645.23
2018-07-21T20:11:33.865Z,100646.03
2018-07-21T20:14:01.861Z,100646.38
2018-07-21T20:16:29.063Z,100654.80
2018-07-21T20:18:56.177Z,100648.14
2018-07-21T20:21:23.413Z,100648.16
2018-07-21T20:23:50.517Z,100650.64
2018-07-21T20:26:17.723Z,100656.38
2018-07-21T20:28:44.966Z,100653.42
2018-07-21T20:31:12.081Z,100660.95
2018-07-21T20:33:39.203Z,100662.59
2018-07-21T20:36:06.456Z,100665.45
2018-07-21T20:38:33.594Z,100666.02
2018-07-21T20:41:00.792Z,100668.99
2018-07-21T20:43:27.993Z,100666.89
2018-07-21T20:45:55.132Z,100669.47
2018-07-21T20:48:22.291Z,100666.31
2018-07-21T20:50:49.456Z,100671.06
2018-07-21T20:53:16.606Z,100672.59
2018-07-21T20:55:43.755Z,100674.03
2018-07-21T20:58:10.991Z,100672.22
2018-07-21T21:00:38.156Z,100678.89
2018-07-21T21:03:05.329Z,100677.84
2018-07-21T21:05:32.524Z,100680.34
2018-07-21T21:07:59.635Z,100685.38
2018-07-21T21:10:26.753Z,100684.23
2018-07-21T21:12:54.023Z,100679.84
2018-07-21T21:15:21.196Z,100686.12
2018-07-21T21:17:48.382Z,100683.27
2018-07-21T21:20:15.569Z,100681.81
2018-07-21T21:22:42.828Z,100684.68
2018-07-21T21:25:09.908Z,100690.22
2018-07-21T21:27:37.215Z,100686.28
2018-07-21T21:30:04.462Z,100692.88
2018-07-21T21:32:31.589Z,100693.90
2018-07-21T21:34:58.772Z,100702.39
2018-07-21T21:37:25.904Z,100698.86
2018-07-21T21:39:53.011Z,100702.33
2018-07-21T21:42:20.288Z,100692.50
2018-07-21T21:44:47.381Z,100703.48
2018-07-21T21:47:14.544Z,100701.58
2018-07-21T21:49:41.736Z,100703.39
2018-07-21T21:52:08.843Z,100702.22
2018-07-21T21:54:36.029Z,100699.83
2018-07-21T21:57:03.254Z,100694.87
2018-07-21T21:59:30.390Z,100698.40
2018-07-21T22:01:57.497Z,100700.98
2018-07-21T22:04:24.668Z,100706.58
2018-07-21T22:06:51.809Z,100704.98
2018-07-21T22:09:18.939Z,100715.39
2018-07-21T22:11:46.143Z,100714.59
2018-07-21T22:14:13.296Z,100710.88
2018-07-21T22:16:40.464Z,100719.64
2018-07-21T22:19:07.639Z,100714.55
2018-07-21T22:21:34.784Z,100716.97
2018-07-21T22:24:01.957Z,100727.95
2018-07-21T22:26:29.238Z,100727.25
2018-07-21T22:28:56.420Z,100728.87
2018-07-21T22:31:23.577Z,100734.88
2018-07-21T22:33:50.829Z,100729.85
2018-07-21T22:36:17.948Z,100735.20
2018-07-21T22:38:45.073Z,100731.09
2018-07-21T22:41:12.324Z,100737.88
2018-07-21T22:43:39.428Z,100738.26
2018-07-21T22:46:06.612Z,100744.84
2018-07-21T22:48:33.800Z,100746.38
2018-07-21T22:51:00.895Z,100744.08
2018-07-21T22:53:28.012Z,100744.11
2018-07-21T22:55:55.194Z,100745.44
2018-07-21T22:58:22.299Z,100735.34
2018-07-21T23:00:49.569Z,100734.67
2018-07-21T23:03:16.816Z,100736.48
2018-07-21T23:05:43.948Z,100740.48
2018-07-21T23:08:11.227Z,100736.80
2018-07-21T23:10:38.385Z,100738.22
2018-07-21T23:13:05.756Z,100737.22
2018-07-21T23:15:32.771Z,100736.87
2018-07-21T23:17:59.911Z,100732.97
2018-07-21T23:20:27.067Z,100735.23
2018-07-21T23:22:54.220Z,100737.62
2018-07-21T23:25:21.400Z,100730.09
2018-07-21T23:27:48.542Z,100726.39
2018-07-21T23:30:15.781Z,100733.44
2018-07-21T23:32:43.035Z,100721.50
2018-07-21T23:35:10.164Z,100722.85
2018-07-21T23:37:37.359Z,100726.09
2018-07-21T23:40:04.987Z,100725.05
2018-07-21T23:42:32.124Z,100719.98
2018-07-21T23:44:59.257Z,100717.91
2018-07-21T23:47:26.417Z,100720.38
2018-07-21T23:49:53.528Z,100719.81
2018-07-21T23:52:20.687Z,100722.19
2018-07-21T23:54:47.839Z,100726.96
2018-07-21T23:57:14.995Z,100723.61
2018-07-21T23:59:42.108Z,100723.39
